ěÝzenÝ letovÚho provozu ╚eskÚ republiky
Letiste: LKPR Aktualizace: 24.09.2020 18:30:25  UTC
 METAR LKPR 24.09. 18:30 ...
METAR LKPR 241830Z 18001KT CAVOK 15/10 Q1007 NOSIG RMK REG QNH 1003=
 TAF LKPR 24.09. 17:00 ...
TAF LKPR 241700Z 2418/2600 16008KT 9999 SCT040      PROB30 TEMPO 2422/2501 SCT035CB      BECMG 2501/2503 9000 -RA BKN030      TEMPO 2503/2509 22014KT 5000 RA BR SCT010 BKN017      TEMPO 2510/2515 -SHRA FEW025TCU      BECMG 2515/2517 30012G26KT      TEMPO 2517/2600 5000 RA BR BKN010=